sensor_id;sensor_type;location;lat;lon;timestamp;P1;durP1;ratioP1;P2;durP2;ratioP2
25569;SDS011;17955;45.542;9.238;2022-09-09T00:00:27;13.45;;;7.75;;
25569;SDS011;17955;45.542;9.238;2022-09-09T00:03:00;15.80;;;8.63;;
25569;SDS011;17955;45.542;9.238;2022-09-09T00:05:36;12.82;;;8.20;;
25569;SDS011;17955;45.542;9.238;2022-09-09T00:08:13;13.45;;;8.80;;
25569;SDS011;17955;45.542;9.238;2022-09-09T00:10:45;16.08;;;8.25;;
25569;SDS011;17955;45.542;9.238;2022-09-09T00:13:22;14.13;;;8.27;;
25569;SDS011;17955;45.542;9.238;2022-09-09T00:15:55;21.45;;;9.15;;
25569;SDS011;17955;45.542;9.238;2022-09-09T00:18:27;18.55;;;9.40;;
25569;SDS011;17955;45.542;9.238;2022-09-09T00:21:13;16.42;;;9.88;;
25569;SDS011;17955;45.542;9.238;2022-09-09T00:23:44;15.77;;;9.50;;
25569;SDS011;17955;45.542;9.238;2022-09-09T00:26:19;18.13;;;9.20;;
25569;SDS011;17955;45.542;9.238;2022-09-09T00:28:58;16.98;;;9.43;;
25569;SDS011;17955;45.542;9.238;2022-09-09T00:31:30;15.63;;;9.75;;
25569;SDS011;17955;45.542;9.238;2022-09-09T00:33:58;16.38;;;9.30;;
25569;SDS011;17955;45.542;9.238;2022-09-09T00:36:31;17.17;;;10.07;;
25569;SDS011;17955;45.542;9.238;2022-09-09T00:39:02;15.98;;;10.15;;
25569;SDS011;17955;45.542;9.238;2022-09-09T00:41:34;15.68;;;9.52;;
25569;SDS011;17955;45.542;9.238;2022-09-09T00:44:17;17.58;;;9.40;;
25569;SDS011;17955;45.542;9.238;2022-09-09T00:46:59;17.90;;;10.93;;
25569;SDS011;17955;45.542;9.238;2022-09-09T00:49:46;15.65;;;10.38;;
25569;SDS011;17955;45.542;9.238;2022-09-09T00:52:27;18.13;;;10.82;;
25569;SDS011;17955;45.542;9.238;2022-09-09T00:55:04;17.73;;;10.43;;
25569;SDS011;17955;45.542;9.238;2022-09-09T00:57:36;20.10;;;10.68;;
25569;SDS011;17955;45.542;9.238;2022-09-09T01:00:20;19.50;;;11.20;;
25569;SDS011;17955;45.542;9.238;2022-09-09T01:02:52;19.80;;;11.30;;
25569;SDS011;17955;45.542;9.238;2022-09-09T01:05:30;19.92;;;10.80;;
25569;SDS011;17955;45.542;9.238;2022-09-09T01:08:03;20.33;;;10.80;;
25569;SDS011;17955;45.542;9.238;2022-09-09T01:10:39;21.73;;;11.53;;
25569;SDS011;17955;45.542;9.238;2022-09-09T01:13:13;15.93;;;11.68;;
25569;SDS011;17955;45.542;9.238;2022-09-09T01:15:52;20.73;;;11.40;;
25569;SDS011;17955;45.542;9.238;2022-09-09T01:18:21;20.27;;;11.38;;
25569;SDS011;17955;45.542;9.238;2022-09-09T01:20:55;18.80;;;11.13;;
25569;SDS011;17955;45.542;9.238;2022-09-09T01:23:38;17.15;;;11.77;;
25569;SDS011;17955;45.542;9.238;2022-09-09T01:26:23;25.45;;;13.00;;
25569;SDS011;17955;45.542;9.238;2022-09-09T01:28:55;20.20;;;12.10;;
25569;SDS011;17955;45.542;9.238;2022-09-09T01:31:31;17.95;;;11.88;;
25569;SDS011;17955;45.542;9.238;2022-09-09T01:34:04;19.10;;;11.98;;
25569;SDS011;17955;45.542;9.238;2022-09-09T01:36:38;26.35;;;11.60;;
25569;SDS011;17955;45.542;9.238;2022-09-09T01:39:10;20.55;;;10.82;;
25569;SDS011;17955;45.542;9.238;2022-09-09T01:41:40;24.88;;;12.10;;
25569;SDS011;17955;45.542;9.238;2022-09-09T01:44:10;22.27;;;11.55;;
25569;SDS011;17955;45.542;9.238;2022-09-09T01:46:41;21.77;;;11.73;;
25569;SDS011;17955;45.542;9.238;2022-09-09T01:49:14;18.95;;;11.80;;
25569;SDS011;17955;45.542;9.238;2022-09-09T01:51:42;22.17;;;12.15;;
25569;SDS011;17955;45.542;9.238;2022-09-09T01:54:12;18.65;;;10.95;;
25569;SDS011;17955;45.542;9.238;2022-09-09T01:56:47;18.92;;;12.57;;
25569;SDS011;17955;45.542;9.238;2022-09-09T01:59:30;26.38;;;12.52;;
25569;SDS011;17955;45.542;9.238;2022-09-09T02:02:16;18.02;;;11.43;;
25569;SDS011;17955;45.542;9.238;2022-09-09T02:05:01;18.75;;;12.27;;
25569;SDS011;17955;45.542;9.238;2022-09-09T02:07:38;22.70;;;12.30;;
25569;SDS011;17955;45.542;9.238;2022-09-09T02:10:20;23.48;;;12.07;;
25569;SDS011;17955;45.542;9.238;2022-09-09T02:13:02;18.73;;;11.98;;
25569;SDS011;17955;45.542;9.238;2022-09-09T02:15:36;18.52;;;12.20;;
25569;SDS011;17955;45.542;9.238;2022-09-09T02:18:10;17.92;;;11.75;;
25569;SDS011;17955;45.542;9.238;2022-09-09T02:20:40;26.23;;;13.20;;
25569;SDS011;17955;45.542;9.238;2022-09-09T02:23:10;27.45;;;12.13;;
25569;SDS011;17955;45.542;9.238;2022-09-09T02:25:38;21.73;;;12.18;;
25569;SDS011;17955;45.542;9.238;2022-09-09T02:28:18;21.30;;;11.43;;
25569;SDS011;17955;45.542;9.238;2022-09-09T02:30:49;18.10;;;12.10;;
25569;SDS011;17955;45.542;9.238;2022-09-09T02:33:25;16.70;;;11.50;;
25569;SDS011;17955;45.542;9.238;2022-09-09T02:35:54;18.05;;;10.93;;
25569;SDS011;17955;45.542;9.238;2022-09-09T02:38:28;20.80;;;10.65;;
25569;SDS011;17955;45.542;9.238;2022-09-09T02:41:05;17.63;;;10.55;;
25569;SDS011;17955;45.542;9.238;2022-09-09T02:43:34;19.48;;;10.63;;
25569;SDS011;17955;45.542;9.238;2022-09-09T02:46:08;20.20;;;9.15;;
25569;SDS011;17955;45.542;9.238;2022-09-09T02:48:51;21.50;;;10.35;;
25569;SDS011;17955;45.542;9.238;2022-09-09T02:51:31;21.38;;;10.25;;
25569;SDS011;17955;45.542;9.238;2022-09-09T02:54:04;15.57;;;9.10;;
25569;SDS011;17955;45.542;9.238;2022-09-09T02:56:42;13.52;;;9.77;;
25569;SDS011;17955;45.542;9.238;2022-09-09T02:59:16;17.75;;;8.52;;
25569;SDS011;17955;45.542;9.238;2022-09-09T03:01:44;14.75;;;8.48;;
25569;SDS011;17955;45.542;9.238;2022-09-09T03:04:12;38.53;;;11.90;;
25569;SDS011;17955;45.542;9.238;2022-09-09T03:06:39;16.88;;;9.23;;
25569;SDS011;17955;45.542;9.238;2022-09-09T03:09:15;17.98;;;8.55;;
25569;SDS011;17955;45.542;9.238;2022-09-09T03:11:42;14.52;;;8.52;;
25569;SDS011;17955;45.542;9.238;2022-09-09T03:14:10;18.15;;;9.07;;
25569;SDS011;17955;45.542;9.238;2022-09-09T03:16:38;15.02;;;9.15;;
25569;SDS011;17955;45.542;9.238;2022-09-09T03:19:05;13.57;;;8.93;;
25569;SDS011;17955;45.542;9.238;2022-09-09T03:21:32;14.45;;;8.65;;
25569;SDS011;17955;45.542;9.238;2022-09-09T03:24:00;16.70;;;9.15;;
25569;SDS011;17955;45.542;9.238;2022-09-09T03:26:29;20.13;;;10.35;;
25569;SDS011;17955;45.542;9.238;2022-09-09T03:28:57;20.58;;;11.07;;
25569;SDS011;17955;45.542;9.238;2022-09-09T03:31:25;23.98;;;13.27;;
25569;SDS011;17955;45.542;9.238;2022-09-09T03:33:57;22.95;;;13.10;;
25569;SDS011;17955;45.542;9.238;2022-09-09T03:36:26;23.10;;;13.38;;
25569;SDS011;17955;45.542;9.238;2022-09-09T03:38:53;25.13;;;14.30;;
25569;SDS011;17955;45.542;9.238;2022-09-09T03:41:22;30.95;;;16.50;;
25569;SDS011;17955;45.542;9.238;2022-09-09T03:43:50;30.95;;;16.75;;
25569;SDS011;17955;45.542;9.238;2022-09-09T03:46:17;25.67;;;18.15;;
25569;SDS011;17955;45.542;9.238;2022-09-09T03:48:44;21.48;;;15.88;;
25569;SDS011;17955;45.542;9.238;2022-09-09T03:51:13;25.05;;;16.50;;
25569;SDS011;17955;45.542;9.238;2022-09-09T03:53:40;26.92;;;17.17;;
25569;SDS011;17955;45.542;9.238;2022-09-09T03:56:08;23.27;;;16.85;;
25569;SDS011;17955;45.542;9.238;2022-09-09T03:58:36;26.40;;;17.88;;
25569;SDS011;17955;45.542;9.238;2022-09-09T04:01:07;24.85;;;17.20;;
25569;SDS011;17955;45.542;9.238;2022-09-09T04:03:39;25.80;;;17.38;;
25569;SDS011;17955;45.542;9.238;2022-09-09T04:06:08;26.73;;;15.40;;
25569;SDS011;17955;45.542;9.238;2022-09-09T04:08:41;24.60;;;13.85;;
25569;SDS011;17955;45.542;9.238;2022-09-09T04:11:08;26.58;;;16.58;;
25569;SDS011;17955;45.542;9.238;2022-09-09T04:13:37;26.65;;;16.02;;
25569;SDS011;17955;45.542;9.238;2022-09-09T04:16:06;28.10;;;17.90;;
25569;SDS011;17955;45.542;9.238;2022-09-09T04:18:35;25.10;;;18.08;;
25569;SDS011;17955;45.542;9.238;2022-09-09T04:21:02;26.05;;;18.15;;
25569;SDS011;17955;45.542;9.238;2022-09-09T04:23:32;27.92;;;18.88;;
25569;SDS011;17955;45.542;9.238;2022-09-09T04:26:01;27.35;;;18.95;;
25569;SDS011;17955;45.542;9.238;2022-09-09T04:28:33;26.02;;;18.60;;
25569;SDS011;17955;45.542;9.238;2022-09-09T04:31:06;26.98;;;18.77;;
25569;SDS011;17955;45.542;9.238;2022-09-09T04:33:35;28.00;;;18.42;;
25569;SDS011;17955;45.542;9.238;2022-09-09T04:36:04;28.02;;;18.90;;
25569;SDS011;17955;45.542;9.238;2022-09-09T04:38:31;24.95;;;19.13;;
25569;SDS011;17955;45.542;9.238;2022-09-09T04:41:01;30.85;;;20.38;;
25569;SDS011;17955;45.542;9.238;2022-09-09T04:43:28;29.65;;;19.92;;
25569;SDS011;17955;45.542;9.238;2022-09-09T04:45:56;27.88;;;18.92;;
25569;SDS011;17955;45.542;9.238;2022-09-09T04:48:24;27.52;;;18.73;;
25569;SDS011;17955;45.542;9.238;2022-09-09T04:50:55;33.53;;;19.52;;
25569;SDS011;17955;45.542;9.238;2022-09-09T04:53:23;30.42;;;21.23;;
25569;SDS011;17955;45.542;9.238;2022-09-09T04:55:51;27.80;;;19.90;;
25569;SDS011;17955;45.542;9.238;2022-09-09T04:58:20;33.35;;;20.33;;
25569;SDS011;17955;45.542;9.238;2022-09-09T05:00:49;31.65;;;20.60;;
25569;SDS011;17955;45.542;9.238;2022-09-09T05:03:17;35.47;;;23.10;;
25569;SDS011;17955;45.542;9.238;2022-09-09T05:05:44;31.20;;;21.05;;
25569;SDS011;17955;45.542;9.238;2022-09-09T05:08:12;28.60;;;19.17;;
25569;SDS011;17955;45.542;9.238;2022-09-09T05:10:39;31.38;;;19.08;;
25569;SDS011;17955;45.542;9.238;2022-09-09T05:13:07;26.35;;;17.02;;
25569;SDS011;17955;45.542;9.238;2022-09-09T05:15:36;23.50;;;16.65;;
25569;SDS011;17955;45.542;9.238;2022-09-09T05:18:03;25.15;;;17.30;;
25569;SDS011;17955;45.542;9.238;2022-09-09T05:20:31;20.50;;;13.48;;
25569;SDS011;17955;45.542;9.238;2022-09-09T05:22:58;16.95;;;9.50;;
25569;SDS011;17955;45.542;9.238;2022-09-09T05:25:28;12.75;;;7.00;;
25569;SDS011;17955;45.542;9.238;2022-09-09T05:27:55;10.90;;;6.70;;
25569;SDS011;17955;45.542;9.238;2022-09-09T05:30:25;9.85;;;5.72;;
25569;SDS011;17955;45.542;9.238;2022-09-09T05:32:53;9.48;;;6.00;;
25569;SDS011;17955;45.542;9.238;2022-09-09T05:35:22;7.22;;;4.43;;
25569;SDS011;17955;45.542;9.238;2022-09-09T05:37:49;5.78;;;3.20;;
25569;SDS011;17955;45.542;9.238;2022-09-09T05:40:16;6.68;;;3.67;;
25569;SDS011;17955;45.542;9.238;2022-09-09T05:42:44;4.43;;;2.05;;
25569;SDS011;17955;45.542;9.238;2022-09-09T05:45:11;4.80;;;1.80;;
25569;SDS011;17955;45.542;9.238;2022-09-09T05:47:38;3.70;;;2.00;;
25569;SDS011;17955;45.542;9.238;2022-09-09T05:50:10;6.70;;;1.50;;
25569;SDS011;17955;45.542;9.238;2022-09-09T05:52:38;3.17;;;1.35;;
25569;SDS011;17955;45.542;9.238;2022-09-09T05:55:06;2.83;;;1.25;;
25569;SDS011;17955;45.542;9.238;2022-09-09T05:57:34;4.18;;;1.40;;
25569;SDS011;17955;45.542;9.238;2022-09-09T06:00:01;4.38;;;2.58;;
25569;SDS011;17955;45.542;9.238;2022-09-09T06:02:39;4.25;;;2.55;;
25569;SDS011;17955;45.542;9.238;2022-09-09T06:05:09;7.15;;;2.80;;
25569;SDS011;17955;45.542;9.238;2022-09-09T06:07:37;4.80;;;2.10;;
25569;SDS011;17955;45.542;9.238;2022-09-09T06:10:08;7.10;;;3.00;;
25569;SDS011;17955;45.542;9.238;2022-09-09T06:12:35;7.03;;;2.20;;
25569;SDS011;17955;45.542;9.238;2022-09-09T06:15:02;4.60;;;1.92;;
25569;SDS011;17955;45.542;9.238;2022-09-09T06:17:30;3.78;;;2.20;;
25569;SDS011;17955;45.542;9.238;2022-09-09T06:19:57;6.05;;;2.60;;
25569;SDS011;17955;45.542;9.238;2022-09-09T06:22:26;5.15;;;2.35;;
25569;SDS011;17955;45.542;9.238;2022-09-09T06:24:53;6.28;;;2.35;;
25569;SDS011;17955;45.542;9.238;2022-09-09T06:27:21;5.10;;;2.90;;
25569;SDS011;17955;45.542;9.238;2022-09-09T06:29:48;6.93;;;3.78;;
25569;SDS011;17955;45.542;9.238;2022-09-09T06:32:15;13.35;;;6.13;;
25569;SDS011;17955;45.542;9.238;2022-09-09T06:34:43;6.85;;;1.75;;
25569;SDS011;17955;45.542;9.238;2022-09-09T06:37:10;3.10;;;1.73;;
25569;SDS011;17955;45.542;9.238;2022-09-09T06:39:44;6.40;;;2.80;;
25569;SDS011;17955;45.542;9.238;2022-09-09T06:42:11;6.97;;;2.20;;
25569;SDS011;17955;45.542;9.238;2022-09-09T06:45:01;7.28;;;4.75;;
25569;SDS011;17955;45.542;9.238;2022-09-09T06:47:42;5.32;;;2.30;;
25569;SDS011;17955;45.542;9.238;2022-09-09T06:50:09;4.88;;;2.10;;
25569;SDS011;17955;45.542;9.238;2022-09-09T06:52:38;5.40;;;1.45;;
25569;SDS011;17955;45.542;9.238;2022-09-09T06:55:09;6.05;;;1.60;;
25569;SDS011;17955;45.542;9.238;2022-09-09T06:57:36;5.43;;;2.97;;
25569;SDS011;17955;45.542;9.238;2022-09-09T07:00:09;8.27;;;1.75;;
25569;SDS011;17955;45.542;9.238;2022-09-09T07:02:39;10.93;;;6.55;;
25569;SDS011;17955;45.542;9.238;2022-09-09T07:05:08;2.58;;;1.25;;
25569;SDS011;17955;45.542;9.238;2022-09-09T07:07:36;6.07;;;3.38;;
25569;SDS011;17955;45.542;9.238;2022-09-09T07:10:05;4.68;;;2.53;;
25569;SDS011;17955;45.542;9.238;2022-09-09T07:12:35;3.70;;;1.60;;
25569;SDS011;17955;45.542;9.238;2022-09-09T07:15:03;5.25;;;2.00;;
25569;SDS011;17955;45.542;9.238;2022-09-09T07:17:31;2.65;;;1.40;;
25569;SDS011;17955;45.542;9.238;2022-09-09T07:19:58;4.40;;;2.33;;
25569;SDS011;17955;45.542;9.238;2022-09-09T07:22:27;3.38;;;1.60;;
25569;SDS011;17955;45.542;9.238;2022-09-09T07:24:55;3.10;;;1.40;;
25569;SDS011;17955;45.542;9.238;2022-09-09T07:27:22;9.57;;;2.67;;
25569;SDS011;17955;45.542;9.238;2022-09-09T07:29:51;3.33;;;1.50;;
25569;SDS011;17955;45.542;9.238;2022-09-09T07:32:21;4.03;;;1.98;;
25569;SDS011;17955;45.542;9.238;2022-09-09T07:34:48;3.47;;;1.60;;
25569;SDS011;17955;45.542;9.238;2022-09-09T07:37:15;4.65;;;1.67;;
25569;SDS011;17955;45.542;9.238;2022-09-09T07:39:44;2.90;;;1.38;;
25569;SDS011;17955;45.542;9.238;2022-09-09T07:42:12;2.75;;;1.23;;
25569;SDS011;17955;45.542;9.238;2022-09-09T07:44:40;4.35;;;1.48;;
25569;SDS011;17955;45.542;9.238;2022-09-09T07:47:13;2.33;;;1.10;;
25569;SDS011;17955;45.542;9.238;2022-09-09T07:49:45;2.95;;;0.88;;
25569;SDS011;17955;45.542;9.238;2022-09-09T07:52:17;3.90;;;1.50;;
25569;SDS011;17955;45.542;9.238;2022-09-09T07:54:46;4.45;;;1.08;;
25569;SDS011;17955;45.542;9.238;2022-09-09T07:57:13;4.47;;;1.88;;
25569;SDS011;17955;45.542;9.238;2022-09-09T07:59:41;2.17;;;1.35;;
25569;SDS011;17955;45.542;9.238;2022-09-09T08:02:10;3.05;;;1.13;;
25569;SDS011;17955;45.542;9.238;2022-09-09T08:04:38;3.88;;;1.55;;
25569;SDS011;17955;45.542;9.238;2022-09-09T08:07:05;3.10;;;1.60;;
25569;SDS011;17955;45.542;9.238;2022-09-09T08:09:39;2.85;;;1.17;;
25569;SDS011;17955;45.542;9.238;2022-09-09T08:12:16;5.22;;;1.60;;
25569;SDS011;17955;45.542;9.238;2022-09-09T08:14:43;4.50;;;1.60;;
25569;SDS011;17955;45.542;9.238;2022-09-09T08:17:10;4.68;;;1.92;;
25569;SDS011;17955;45.542;9.238;2022-09-09T08:19:39;4.50;;;1.50;;
25569;SDS011;17955;45.542;9.238;2022-09-09T08:22:11;4.00;;;1.15;;
25569;SDS011;17955;45.542;9.238;2022-09-09T08:24:38;1.45;;;0.70;;
25569;SDS011;17955;45.542;9.238;2022-09-09T08:27:07;3.33;;;0.90;;
25569;SDS011;17955;45.542;9.238;2022-09-09T08:29:35;3.22;;;0.80;;
25569;SDS011;17955;45.542;9.238;2022-09-09T08:32:04;2.90;;;0.80;;
25569;SDS011;17955;45.542;9.238;2022-09-09T08:34:31;2.50;;;0.90;;
25569;SDS011;17955;45.542;9.238;2022-09-09T08:37:04;2.22;;;0.60;;
25569;SDS011;17955;45.542;9.238;2022-09-09T08:39:36;4.63;;;0.73;;
25569;SDS011;17955;45.542;9.238;2022-09-09T08:42:24;2.42;;;1.00;;
25569;SDS011;17955;45.542;9.238;2022-09-09T08:48:03;4.47;;;0.90;;
25569;SDS011;17955;45.542;9.238;2022-09-09T08:50:43;5.85;;;1.15;;
25569;SDS011;17955;45.542;9.238;2022-09-09T08:53:20;4.40;;;1.00;;
25569;SDS011;17955;45.542;9.238;2022-09-09T08:55:51;2.63;;;0.98;;
25569;SDS011;17955;45.542;9.238;2022-09-09T08:58:30;4.20;;;1.08;;
25569;SDS011;17955;45.542;9.238;2022-09-09T09:01:05;5.32;;;0.88;;
25569;SDS011;17955;45.542;9.238;2022-09-09T09:03:54;2.85;;;0.77;;
25569;SDS011;17955;45.542;9.238;2022-09-09T09:06:31;3.03;;;0.68;;
25569;SDS011;17955;45.542;9.238;2022-09-09T09:09:11;2.65;;;0.80;;
25569;SDS011;17955;45.542;9.238;2022-09-09T09:11:45;1.88;;;0.60;;
25569;SDS011;17955;45.542;9.238;2022-09-09T09:14:17;4.10;;;0.70;;
25569;SDS011;17955;45.542;9.238;2022-09-09T09:16:49;1.85;;;0.50;;
25569;SDS011;17955;45.542;9.238;2022-09-09T09:19:20;3.70;;;0.98;;
25569;SDS011;17955;45.542;9.238;2022-09-09T09:21:52;1.85;;;0.80;;
25569;SDS011;17955;45.542;9.238;2022-09-09T09:24:27;1.40;;;0.65;;
25569;SDS011;17955;45.542;9.238;2022-09-09T09:27:06;3.28;;;0.75;;
25569;SDS011;17955;45.542;9.238;2022-09-09T09:29:42;3.38;;;0.50;;
25569;SDS011;17955;45.542;9.238;2022-09-09T09:32:11;2.45;;;0.88;;
25569;SDS011;17955;45.542;9.238;2022-09-09T09:34:48;2.90;;;0.68;;
25569;SDS011;17955;45.542;9.238;2022-09-09T09:37:16;3.38;;;1.00;;
25569;SDS011;17955;45.542;9.238;2022-09-09T09:39:50;3.05;;;0.55;;
25569;SDS011;17955;45.542;9.238;2022-09-09T09:42:17;2.38;;;1.00;;
25569;SDS011;17955;45.542;9.238;2022-09-09T09:44:47;1.75;;;0.60;;
25569;SDS011;17955;45.542;9.238;2022-09-09T09:47:18;1.58;;;0.75;;
25569;SDS011;17955;45.542;9.238;2022-09-09T09:49:55;4.22;;;1.00;;
25569;SDS011;17955;45.542;9.238;2022-09-09T09:52:25;5.97;;;0.98;;
25569;SDS011;17955;45.542;9.238;2022-09-09T09:54:55;3.15;;;0.73;;
25569;SDS011;17955;45.542;9.238;2022-09-09T09:57:25;2.83;;;0.70;;
25569;SDS011;17955;45.542;9.238;2022-09-09T10:00:12;2.47;;;0.60;;
25569;SDS011;17955;45.542;9.238;2022-09-09T10:02:47;4.63;;;1.20;;
25569;SDS011;17955;45.542;9.238;2022-09-09T10:05:21;2.92;;;1.17;;
25569;SDS011;17955;45.542;9.238;2022-09-09T10:08:04;4.15;;;1.20;;
25569;SDS011;17955;45.542;9.238;2022-09-09T10:13:46;2.58;;;1.20;;
25569;SDS011;17955;45.542;9.238;2022-09-09T10:16:24;6.38;;;1.48;;
25569;SDS011;17955;45.542;9.238;2022-09-09T10:18:59;4.22;;;0.98;;
25569;SDS011;17955;45.542;9.238;2022-09-09T10:21:39;4.43;;;1.33;;
25569;SDS011;17955;45.542;9.238;2022-09-09T10:24:34;4.28;;;1.35;;
25569;SDS011;17955;45.542;9.238;2022-09-09T10:27:27;5.20;;;1.88;;
25569;SDS011;17955;45.542;9.238;2022-09-09T10:32:47;2.47;;;1.02;;
25569;SDS011;17955;45.542;9.238;2022-09-09T10:35:29;2.80;;;1.08;;
25569;SDS011;17955;45.542;9.238;2022-09-09T10:43:42;3.55;;;1.23;;
25569;SDS011;17955;45.542;9.238;2022-09-09T10:46:31;1.80;;;0.65;;
25569;SDS011;17955;45.542;9.238;2022-09-09T10:49:09;2.63;;;1.20;;
25569;SDS011;17955;45.542;9.238;2022-09-09T10:51:47;4.80;;;0.98;;
25569;SDS011;17955;45.542;9.238;2022-09-09T10:54:30;5.45;;;1.10;;
25569;SDS011;17955;45.542;9.238;2022-09-09T10:57:07;1.83;;;0.82;;
25569;SDS011;17955;45.542;9.238;2022-09-09T10:59:41;2.28;;;0.90;;
25569;SDS011;17955;45.542;9.238;2022-09-09T11:02:15;1.75;;;0.80;;
25569;SDS011;17955;45.542;9.238;2022-09-09T11:04:48;3.65;;;0.90;;
25569;SDS011;17955;45.542;9.238;2022-09-09T11:07:23;3.15;;;1.00;;
25569;SDS011;17955;45.542;9.238;2022-09-09T11:09:56;2.58;;;0.85;;
25569;SDS011;17955;45.542;9.238;2022-09-09T11:12:27;5.88;;;1.10;;
25569;SDS011;17955;45.542;9.238;2022-09-09T11:14:57;3.40;;;1.10;;
25569;SDS011;17955;45.542;9.238;2022-09-09T11:17:33;3.65;;;1.23;;
25569;SDS011;17955;45.542;9.238;2022-09-09T11:20:05;3.20;;;1.05;;
25569;SDS011;17955;45.542;9.238;2022-09-09T11:22:37;5.10;;;1.08;;
25569;SDS011;17955;45.542;9.238;2022-09-09T11:25:10;3.47;;;1.13;;
25569;SDS011;17955;45.542;9.238;2022-09-09T11:27:44;4.15;;;1.13;;
25569;SDS011;17955;45.542;9.238;2022-09-09T11:30:24;4.28;;;0.90;;
25569;SDS011;17955;45.542;9.238;2022-09-09T11:35:55;7.57;;;1.13;;
25569;SDS011;17955;45.542;9.238;2022-09-09T11:38:51;6.90;;;1.33;;
25569;SDS011;17955;45.542;9.238;2022-09-09T11:41:19;6.63;;;1.33;;
25569;SDS011;17955;45.542;9.238;2022-09-09T11:43:48;3.00;;;1.20;;
25569;SDS011;17955;45.542;9.238;2022-09-09T11:46:19;2.45;;;1.08;;
25569;SDS011;17955;45.542;9.238;2022-09-09T11:48:57;3.40;;;1.00;;
25569;SDS011;17955;45.542;9.238;2022-09-09T11:51:26;2.05;;;0.95;;
25569;SDS011;17955;45.542;9.238;2022-09-09T11:53:56;6.00;;;1.30;;
25569;SDS011;17955;45.542;9.238;2022-09-09T11:56:27;3.17;;;1.15;;
25569;SDS011;17955;45.542;9.238;2022-09-09T11:58:57;4.25;;;1.00;;
25569;SDS011;17955;45.542;9.238;2022-09-09T12:07:03;4.15;;;1.75;;
25569;SDS011;17955;45.542;9.238;2022-09-09T12:09:33;5.53;;;1.45;;
25569;SDS011;17955;45.542;9.238;2022-09-09T12:12:23;3.47;;;1.13;;
25569;SDS011;17955;45.542;9.238;2022-09-09T12:14:56;4.95;;;1.40;;
25569;SDS011;17955;45.542;9.238;2022-09-09T12:17:27;3.40;;;1.30;;
25569;SDS011;17955;45.542;9.238;2022-09-09T12:20:00;4.35;;;1.63;;
25569;SDS011;17955;45.542;9.238;2022-09-09T12:22:35;5.75;;;1.90;;
25569;SDS011;17955;45.542;9.238;2022-09-09T12:25:09;4.80;;;1.50;;
25569;SDS011;17955;45.542;9.238;2022-09-09T12:27:50;4.82;;;1.70;;
25569;SDS011;17955;45.542;9.238;2022-09-09T12:30:28;5.10;;;1.35;;
25569;SDS011;17955;45.542;9.238;2022-09-09T12:33:06;3.95;;;1.33;;
25569;SDS011;17955;45.542;9.238;2022-09-09T12:35:38;4.80;;;1.65;;
25569;SDS011;17955;45.542;9.238;2022-09-09T12:38:06;3.15;;;1.08;;
25569;SDS011;17955;45.542;9.238;2022-09-09T12:40:41;5.18;;;1.48;;
25569;SDS011;17955;45.542;9.238;2022-09-09T12:43:17;4.78;;;1.55;;
25569;SDS011;17955;45.542;9.238;2022-09-09T12:45:46;4.45;;;1.23;;
25569;SDS011;17955;45.542;9.238;2022-09-09T12:48:16;4.82;;;2.13;;
25569;SDS011;17955;45.542;9.238;2022-09-09T12:50:46;5.38;;;1.25;;
25569;SDS011;17955;45.542;9.238;2022-09-09T12:53:20;4.03;;;1.52;;
25569;SDS011;17955;45.542;9.238;2022-09-09T12:55:52;4.95;;;1.40;;
25569;SDS011;17955;45.542;9.238;2022-09-09T12:58:22;6.47;;;2.03;;
25569;SDS011;17955;45.542;9.238;2022-09-09T13:00:50;7.82;;;1.20;;
25569;SDS011;17955;45.542;9.238;2022-09-09T13:03:20;5.40;;;1.75;;
25569;SDS011;17955;45.542;9.238;2022-09-09T13:05:48;2.95;;;1.27;;
25569;SDS011;17955;45.542;9.238;2022-09-09T13:08:23;4.28;;;1.10;;
25569;SDS011;17955;45.542;9.238;2022-09-09T13:10:54;3.05;;;1.33;;
25569;SDS011;17955;45.542;9.238;2022-09-09T13:13:25;2.85;;;1.23;;
25569;SDS011;17955;45.542;9.238;2022-09-09T13:15:55;8.98;;;1.65;;
25569;SDS011;17955;45.542;9.238;2022-09-09T13:18:26;2.28;;;1.00;;
25569;SDS011;17955;45.542;9.238;2022-09-09T13:20:55;3.78;;;1.20;;
25569;SDS011;17955;45.542;9.238;2022-09-09T13:23:25;4.38;;;1.10;;
25569;SDS011;17955;45.542;9.238;2022-09-09T13:25:57;5.40;;;1.25;;
25569;SDS011;17955;45.542;9.238;2022-09-09T13:28:26;5.57;;;1.75;;
25569;SDS011;17955;45.542;9.238;2022-09-09T13:30:58;4.05;;;1.92;;
25569;SDS011;17955;45.542;9.238;2022-09-09T13:33:31;4.63;;;1.33;;
25569;SDS011;17955;45.542;9.238;2022-09-09T13:36:02;3.00;;;1.20;;
25569;SDS011;17955;45.542;9.238;2022-09-09T13:38:32;5.00;;;1.20;;
25569;SDS011;17955;45.542;9.238;2022-09-09T13:41:02;4.03;;;1.35;;
25569;SDS011;17955;45.542;9.238;2022-09-09T13:43:31;3.42;;;1.15;;
25569;SDS011;17955;45.542;9.238;2022-09-09T13:46:03;7.60;;;1.50;;
25569;SDS011;17955;45.542;9.238;2022-09-09T13:48:33;4.53;;;1.15;;
25569;SDS011;17955;45.542;9.238;2022-09-09T13:51:01;6.75;;;1.30;;
25569;SDS011;17955;45.542;9.238;2022-09-09T13:53:30;5.15;;;1.80;;
25569;SDS011;17955;45.542;9.238;2022-09-09T13:55:57;6.80;;;1.00;;
25569;SDS011;17955;45.542;9.238;2022-09-09T13:58:25;3.53;;;1.40;;
25569;SDS011;17955;45.542;9.238;2022-09-09T14:00:55;3.85;;;1.30;;
25569;SDS011;17955;45.542;9.238;2022-09-09T14:03:22;4.25;;;1.20;;
25569;SDS011;17955;45.542;9.238;2022-09-09T14:05:53;2.80;;;1.30;;
25569;SDS011;17955;45.542;9.238;2022-09-09T14:08:25;6.38;;;1.13;;
25569;SDS011;17955;45.542;9.238;2022-09-09T14:11:02;6.65;;;1.70;;
25569;SDS011;17955;45.542;9.238;2022-09-09T14:13:30;2.60;;;1.35;;
25569;SDS011;17955;45.542;9.238;2022-09-09T14:15:57;3.38;;;1.33;;
25569;SDS011;17955;45.542;9.238;2022-09-09T14:18:24;4.22;;;1.23;;
25569;SDS011;17955;45.542;9.238;2022-09-09T14:20:51;8.05;;;1.70;;
25569;SDS011;17955;45.542;9.238;2022-09-09T14:23:19;7.20;;;1.38;;
25569;SDS011;17955;45.542;9.238;2022-09-09T14:25:47;3.58;;;1.30;;
25569;SDS011;17955;45.542;9.238;2022-09-09T14:28:14;5.80;;;1.45;;
25569;SDS011;17955;45.542;9.238;2022-09-09T14:30:41;4.13;;;0.93;;
25569;SDS011;17955;45.542;9.238;2022-09-09T14:33:12;11.02;;;1.50;;
25569;SDS011;17955;45.542;9.238;2022-09-09T14:35:41;4.78;;;1.05;;
25569;SDS011;17955;45.542;9.238;2022-09-09T14:38:09;4.07;;;1.42;;
25569;SDS011;17955;45.542;9.238;2022-09-09T14:40:38;5.60;;;1.60;;
25569;SDS011;17955;45.542;9.238;2022-09-09T14:43:05;3.35;;;1.10;;
25569;SDS011;17955;45.542;9.238;2022-09-09T14:45:32;5.35;;;1.48;;
25569;SDS011;17955;45.542;9.238;2022-09-09T14:48:02;5.85;;;1.20;;
25569;SDS011;17955;45.542;9.238;2022-09-09T14:50:30;3.55;;;1.25;;
25569;SDS011;17955;45.542;9.238;2022-09-09T14:52:57;3.80;;;1.63;;
25569;SDS011;17955;45.542;9.238;2022-09-09T14:55:26;3.25;;;1.05;;
25569;SDS011;17955;45.542;9.238;2022-09-09T14:57:56;4.32;;;1.38;;
25569;SDS011;17955;45.542;9.238;2022-09-09T15:00:25;4.45;;;1.38;;
25569;SDS011;17955;45.542;9.238;2022-09-09T15:02:53;3.88;;;1.40;;
25569;SDS011;17955;45.542;9.238;2022-09-09T15:05:20;5.35;;;1.15;;
25569;SDS011;17955;45.542;9.238;2022-09-09T15:07:49;4.25;;;1.30;;
25569;SDS011;17955;45.542;9.238;2022-09-09T15:10:16;7.00;;;1.27;;
25569;SDS011;17955;45.542;9.238;2022-09-09T15:12:44;3.08;;;1.00;;
25569;SDS011;17955;45.542;9.238;2022-09-09T15:15:12;5.35;;;1.50;;
25569;SDS011;17955;45.542;9.238;2022-09-09T15:17:39;4.18;;;1.40;;
25569;SDS011;17955;45.542;9.238;2022-09-09T15:20:08;3.65;;;1.20;;
25569;SDS011;17955;45.542;9.238;2022-09-09T15:22:35;5.40;;;1.00;;
25569;SDS011;17955;45.542;9.238;2022-09-09T15:25:03;5.40;;;1.30;;
25569;SDS011;17955;45.542;9.238;2022-09-09T15:27:32;4.47;;;1.63;;